Time;durP1;ratioP1;P1;durP2;ratioP2;P2;SDS_P1;SDS_P2;PMS_P1;PMS_P2;Temp;Humidity;BMP_temperature;BMP_pressure;BME280_temperature;BME280_humidity;BME280_pressure;Samples;Min_cycle;Max_cycle;Signal;HPM_P1;HPM_P2
2024/04/25 00:01:03;;;;;;;1.40;0.60;;;;;;;10.06;100.00;99394.02;109253;1254;74812;-54
2024/04/25 00:03:30;;;;;;;0.80;0.60;;;;;;;10.01;100.00;99395.69;109033;1256;67053;-50
2024/04/25 00:05:57;;;;;;;1.00;0.70;;;;;;;9.97;100.00;99395.90;109088;1255;72890;-51
2024/04/25 00:08:24;;;;;;;1.20;0.60;;;;;;;9.93;100.00;99388.06;108801;1252;61987;-50
2024/04/25 00:10:51;;;;;;;3.30;0.90;;;;;;;9.89;100.00;99393.98;109187;1254;59071;-51
2024/04/25 00:13:21;;;;;;;2.70;0.80;;;;;;;9.85;100.00;99404.77;109203;1256;75074;-52
2024/04/25 00:15:48;;;;;;;0.80;0.60;;;;;;;9.81;100.00;99401.20;109346;1254;67236;-52
2024/04/25 00:18:15;;;;;;;1.90;0.80;;;;;;;9.78;100.00;99401.52;109112;1253;73139;-51
2024/04/25 00:20:43;;;;;;;0.90;0.70;;;;;;;9.74;100.00;99403.02;109254;1253;60052;-51
2024/04/25 00:23:09;;;;;;;1.60;0.60;;;;;;;9.67;100.00;99404.77;109208;1256;60457;-51
2024/04/25 00:25:36;;;;;;;1.30;0.70;;;;;;;9.61;100.00;99399.36;109220;1252;72696;-52
2024/04/25 00:28:03;;;;;;;1.70;1.40;;;;;;;9.55;100.00;99406.30;109231;1253;67043;-50
2024/04/25 00:30:30;;;;;;;0.90;0.70;;;;;;;9.49;100.00;99414.27;109284;1253;71220;-55
2024/04/25 00:32:58;;;;;;;1.40;0.70;;;;;;;9.47;100.00;99420.13;107015;1256;61248;-51
2024/04/25 00:35:25;;;;;;;3.60;0.70;;;;;;;9.45;100.00;99415.72;105920;1264;62049;-52
2024/04/25 00:37:52;;;;;;;2.80;1.00;;;;;;;9.43;100.00;99411.58;106180;1256;74757;-54
2024/04/25 00:40:19;;;;;;;1.80;0.80;;;;;;;9.40;100.00;99407.23;106058;1257;66029;-51
2024/04/25 00:42:45;;;;;;;1.30;0.90;;;;;;;9.37;100.00;99407.71;106058;1269;72712;-52
2024/04/25 00:45:12;;;;;;;2.60;0.70;;;;;;;9.34;100.00;99412.38;106008;1259;61372;-52
2024/04/25 00:47:39;;;;;;;5.60;0.80;;;;;;;9.29;100.00;99420.83;106015;1259;61283;-51
2024/04/25 00:50:06;;;;;;;1.30;0.70;;;;;;;9.23;100.00;99423.63;105995;1266;74796;-54
2024/04/25 00:52:34;;;;;;;0.60;0.60;;;;;;;9.18;100.00;99422.79;105968;1268;66101;-52
2024/04/25 00:55:04;;;;;;;1.20;0.40;;;;;;;9.14;100.00;99426.39;106015;1256;73597;-51
2024/04/25 00:57:31;;;;;;;2.40;0.60;;;;;;;9.11;100.00;99426.54;106509;1256;61449;-51
2024/04/25 00:59:58;;;;;;;1.80;0.50;;;;;;;9.08;100.00;99425.04;106041;1260;60542;-51
2024/04/25 01:02:24;;;;;;;3.70;0.60;;;;;;;9.06;100.00;99429.61;105871;1270;74548;-50
2024/04/25 01:04:51;;;;;;;0.70;0.50;;;;;;;9.02;100.00;99426.05;105912;1271;66800;-51
2024/04/25 01:07:18;;;;;;;1.40;0.80;;;;;;;8.98;100.00;99429.46;105931;1269;73469;-51
2024/04/25 01:09:45;;;;;;;1.10;0.70;;;;;;;8.95;100.00;99423.35;106209;1269;61303;-55
2024/04/25 01:12:12;;;;;;;3.60;0.90;;;;;;;8.92;100.00;99425.45;106352;1266;61372;-52
2024/04/25 01:14:39;;;;;;;0.90;0.80;;;;;;;8.90;100.00;99421.98;106021;1257;72385;-50
2024/04/25 01:17:05;;;;;;;3.00;0.70;;;;;;;8.87;100.00;99427.14;106150;1258;66958;-51
2024/04/25 01:19:32;;;;;;;1.20;0.60;;;;;;;8.84;100.00;99424.05;106011;1257;72909;-55
2024/04/25 01:21:59;;;;;;;0.70;0.70;;;;;;;8.83;100.00;99425.02;106122;1266;61762;-52
2024/04/25 01:24:27;;;;;;;1.20;0.60;;;;;;;8.82;100.00;99422.39;106051;1257;61069;-53
2024/04/25 01:26:57;;;;;;;2.20;0.60;;;;;;;8.82;100.00;99418.98;106322;1257;75481;-54
2024/04/25 01:29:23;;;;;;;7.50;0.60;;;;;;;8.83;100.00;99423.75;106025;1259;66777;-54
2024/04/25 01:31:50;;;;;;;1.00;0.70;;;;;;;8.81;100.00;99426.90;106053;1260;71422;-52
2024/04/25 01:34:20;;;;;;;1.50;0.90;;;;;;;8.75;100.00;99420.70;106101;1258;61264;-55
2024/04/25 01:36:48;;;;;;;0.90;0.80;;;;;;;8.71;100.00;99425.73;106070;1261;61327;-55
2024/04/25 01:39:14;;;;;;;2.30;0.80;;;;;;;8.66;100.00;99425.25;106107;1257;74489;-53
2024/04/25 01:41:41;;;;;;;1.20;0.80;;;;;;;8.59;100.00;99425.73;106120;1256;66023;-52
2024/04/25 01:44:08;;;;;;;4.90;0.90;;;;;;;8.52;100.00;99420.17;106002;1267;72481;-52
2024/04/25 01:46:35;;;;;;;1.60;0.80;;;;;;;8.45;100.00;99419.03;106051;1266;61340;-53
2024/04/25 01:49:02;;;;;;;2.40;0.80;;;;;;;8.39;100.00;99422.91;105924;1267;62159;-53
2024/04/25 01:51:29;;;;;;;1.10;1.00;;;;;;;8.33;100.00;99426.19;106016;1256;74956;-52
2024/04/25 01:53:56;;;;;;;1.60;1.00;;;;;;;8.28;100.00;99427.08;106020;1267;66196;-52
2024/04/25 01:56:23;;;;;;;1.90;1.10;;;;;;;8.25;100.00;99427.77;105985;1254;72713;-51
2024/04/25 01:58:52;;;;;;;1.30;1.20;;;;;;;8.23;100.00;99433.94;106084;1257;61384;-53
2024/04/25 02:01:19;;;;;;;1.20;1.00;;;;;;;8.23;100.00;99437.34;107056;1256;61234;-52
2024/04/25 02:03:46;;;;;;;1.40;1.10;;;;;;;8.22;100.00;99444.70;106252;1262;74560;-54
2024/04/25 02:06:13;;;;;;;2.00;1.20;;;;;;;8.19;100.00;99450.00;105992;1256;67349;-52
2024/04/25 02:08:40;;;;;;;2.40;2.20;;;;;;;8.16;100.00;99453.55;106004;1256;72554;-52
2024/04/25 02:11:07;;;;;;;1.40;1.30;;;;;;;8.13;100.00;99453.33;105982;1255;62882;-53
2024/04/25 02:13:35;;;;;;;1.20;1.10;;;;;;;8.12;100.00;99450.16;106297;1256;61178;-52
2024/04/25 02:16:02;;;;;;;1.20;1.00;;;;;;;8.11;100.00;99457.52;107030;1256;74719;-51
2024/04/25 02:18:29;;;;;;;1.20;1.10;;;;;;;8.10;100.00;99460.40;106016;1258;67393;-51
2024/04/25 02:26:26;;;;;;;1.00;0.80;;;;;;;8.20;100.00;99479.11;106040;1257;62258;-51
2024/04/25 02:28:53;;;;;;;0.60;0.60;;;;;;;8.27;100.00;99479.70;106047;1265;74865;-53
2024/04/25 02:31:22;;;;;;;0.70;0.70;;;;;;;8.35;100.00;99482.27;106051;1256;65835;-50
2024/04/25 02:33:49;;;;;;;2.90;1.00;;;;;;;8.41;100.00;99477.67;106336;1269;74955;-55
2024/04/25 02:36:16;;;;;;;1.00;0.80;;;;;;;8.48;100.00;99473.64;105996;1258;61409;-52
2024/04/25 02:38:42;;;;;;;1.80;1.10;;;;;;;8.54;100.00;99476.59;106047;1264;61337;-52
2024/04/25 02:41:09;;;;;;;1.00;0.70;;;;;;;8.58;100.00;99474.42;106006;1254;74910;-52
2024/04/25 02:43:36;;;;;;;0.90;0.70;;;;;;;8.61;100.00;99475.36;106376;1256;67030;-53
2024/04/25 02:46:04;;;;;;;1.40;0.70;;;;;;;8.64;100.00;99476.30;106046;1266;72946;-55
2024/04/25 02:48:31;;;;;;;0.90;0.80;;;;;;;8.68;100.00;99483.80;106077;1256;61301;-52
2024/04/25 02:50:58;;;;;;;0.60;0.60;;;;;;;8.72;100.00;99482.20;106057;1266;61231;-52
2024/04/25 02:53:25;;;;;;;0.70;0.70;;;;;;;8.75;100.00;99486.74;105988;1267;74927;-52
2024/04/25 02:55:52;;;;;;;0.60;0.60;;;;;;;8.77;100.00;99485.59;109124;1254;68017;-52
2024/04/25 02:58:19;;;;;;;0.80;0.80;;;;;;;8.78;100.00;99484.98;109181;1254;71249;-51
2024/04/25 03:00:46;;;;;;;1.90;1.30;;;;;;;8.80;100.00;99483.46;109174;1254;59089;-52
2024/04/25 03:03:13;;;;;;;1.30;0.90;;;;;;;8.80;100.00;99486.87;109160;1253;59954;-52
2024/04/25 03:05:40;;;;;;;1.50;0.90;;;;;;;8.79;100.00;99491.20;109329;1253;73191;-52
2024/04/25 03:08:07;;;;;;;0.70;0.70;;;;;;;8.77;100.00;99491.84;109176;1253;67387;-53
2024/04/25 03:10:35;;;;;;;1.30;0.80;;;;;;;8.77;100.00;99483.25;109135;1254;73166;-54
2024/04/25 03:13:01;;;;;;;0.70;0.70;;;;;;;8.78;100.00;99486.61;109192;1253;62410;-54
2024/04/25 03:15:28;;;;;;;1.50;0.70;;;;;;;8.79;100.00;99482.61;109328;1254;59898;-52
2024/04/25 03:17:55;;;;;;;0.80;0.60;;;;;;;8.84;100.00;99489.02;109137;1254;74499;-52
2024/04/25 03:20:22;;;;;;;1.90;1.20;;;;;;;8.88;100.00;99492.55;109023;1254;66984;-53
2024/04/25 03:22:48;;;;;;;0.80;0.70;;;;;;;8.93;100.00;99491.27;109238;1252;71461;-52
2024/04/25 03:25:15;;;;;;;1.30;1.20;;;;;;;8.98;100.00;99492.66;109198;1253;60157;-55
2024/04/25 03:27:42;;;;;;;4.80;1.20;;;;;;;9.03;100.00;99493.31;109182;1251;59431;-52
2024/04/25 03:30:09;;;;;;;1.70;0.80;;;;;;;9.07;100.00;99496.34;109236;1253;74519;-54
2024/04/25 03:32:37;;;;;;;2.60;1.00;;;;;;;9.13;100.00;99494.27;109150;1253;67096;-52
2024/04/25 03:35:04;;;;;;;1.70;0.90;;;;;;;9.19;100.00;99490.27;109197;1254;72506;-51
2024/04/25 03:37:31;;;;;;;3.10;1.00;;;;;;;9.25;100.00;99486.38;109127;1254;61015;-52
2024/04/25 03:39:58;;;;;;;0.70;0.70;;;;;;;9.33;100.00;99493.71;109228;1254;60290;-52
2024/04/25 03:42:24;;;;;;;3.00;0.80;;;;;;;9.41;100.00;99501.73;108267;1255;73408;-53
2024/04/25 03:44:52;;;;;;;2.10;1.10;;;;;;;9.50;100.00;99502.89;105965;1257;67124;-53
2024/04/25 03:47:20;;;;;;;2.80;1.20;;;;;;;9.60;100.00;99504.94;106705;1256;73112;-53
2024/04/25 03:49:47;;;;;;;3.00;1.80;;;;;;;9.69;100.00;99509.69;106157;1257;61556;-52
2024/04/25 03:52:14;;;;;;;3.10;1.50;;;;;;;9.79;100.00;99512.98;106368;1257;61041;-54
2024/04/25 03:54:41;;;;;;;2.20;1.50;;;;;;;9.89;100.00;99516.97;106188;1257;75064;-53
2024/04/25 03:57:08;;;;;;;2.00;1.00;;;;;;;10.00;100.00;99524.47;106072;1254;68010;-52
2024/04/25 03:59:35;;;;;;;1.80;1.10;;;;;;;10.11;100.00;99527.33;106274;1254;73049;-54
2024/04/25 04:02:02;;;;;;;2.10;1.10;;;;;;;10.24;100.00;99533.17;106299;1256;62527;-52
2024/04/25 04:04:29;;;;;;;2.30;1.00;;;;;;;10.37;100.00;99535.55;107328;1254;61315;-54
2024/04/25 04:06:56;;;;;;;1.60;1.20;;;;;;;10.56;100.00;99541.00;105913;1260;74927;-51
2024/04/25 04:09:23;;;;;;;2.00;1.30;;;;;;;10.87;100.00;99549.63;107733;1256;67021;-51
2024/04/25 04:11:50;;;;;;;1.00;0.80;;;;;;;11.24;100.00;99563.45;106106;1254;72883;-54
2024/04/25 04:14:17;;;;;;;1.20;0.80;;;;;;;11.62;100.00;99570.14;106065;1258;61324;-53
2024/04/25 04:16:44;;;;;;;1.00;1.00;;;;;;;12.00;100.00;99572.52;106097;1266;60915;-53
2024/04/25 04:19:11;;;;;;;2.00;1.10;;;;;;;12.35;100.00;99581.65;106033;1254;75126;-52
2024/04/25 04:21:37;;;;;;;1.90;0.90;;;;;;;12.67;100.00;99593.79;106154;1257;66991;-51
2024/04/25 04:24:05;;;;;;;1.30;0.90;;;;;;;12.95;100.00;99599.13;106189;1253;74105;-53
2024/04/25 04:26:31;;;;;;;2.70;1.20;;;;;;;13.17;100.00;99612.77;109152;1255;60390;-52
2024/04/25 04:28:58;;;;;;;3.30;0.80;;;;;;;13.38;100.00;99624.29;109311;1254;60117;-51
2024/04/25 04:31:25;;;;;;;1.20;0.80;;;;;;;13.61;100.00;99630.23;109127;1254;74602;-51
2024/04/25 04:33:51;;;;;;;1.20;0.70;;;;;;;13.82;100.00;99645.82;109123;1253;66967;-51
2024/04/25 04:36:18;;;;;;;2.70;0.90;;;;;;;13.95;100.00;99649.67;109270;1252;73841;-52
2024/04/25 04:38:45;;;;;;;1.40;0.90;;;;;;;14.08;100.00;99658.26;108760;1253;61988;-51
2024/04/25 04:41:12;;;;;;;1.20;0.80;;;;;;;14.15;100.00;99661.73;106006;1260;61223;-52
2024/04/25 04:43:39;;;;;;;1.90;0.90;;;;;;;14.18;100.00;99663.91;105999;1258;74564;-52
2024/04/25 04:46:06;;;;;;;3.40;1.10;;;;;;;14.20;100.00;99667.22;106092;1257;65207;-50
2024/04/25 04:48:33;;;;;;;2.30;0.80;;;;;;;14.20;100.00;99673.87;105978;1260;72907;-51
2024/04/25 04:51:02;;;;;;;1.60;0.60;;;;;;;14.19;100.00;99683.55;106107;1260;62009;-53
2024/04/25 04:53:29;;;;;;;1.60;0.80;;;;;;;14.16;100.00;99694.73;106473;1257;59936;-50
2024/04/25 04:55:56;;;;;;;3.30;0.80;;;;;;;14.13;100.00;99702.52;105978;1256;74537;-53
2024/04/25 04:58:23;;;;;;;1.80;0.70;;;;;;;14.11;100.00;99704.10;106037;1256;66442;-52
2024/04/25 05:00:50;;;;;;;1.90;0.60;;;;;;;14.12;100.00;99712.50;105991;1260;72914;-53
2024/04/25 05:03:17;;;;;;;2.00;0.70;;;;;;;14.15;100.00;99712.63;106424;1254;61541;-52
2024/04/25 05:05:44;;;;;;;2.90;0.70;;;;;;;14.18;100.00;99718.41;106014;1256;61458;-55
2024/04/25 05:08:11;;;;;;;1.40;0.70;;;;;;;14.21;100.00;99723.67;106124;1257;75980;-53
2024/04/25 05:12:54;;;;;;;0.90;0.60;;;;;;;14.30;100.00;99784.08;102803;1290;601070;-50
2024/04/25 05:15:21;;;;;;;1.10;0.50;;;;;;;14.32;100.00;99818.22;108541;1265;61570;-50
2024/04/25 05:17:47;;;;;;;1.20;0.50;;;;;;;14.37;100.00;99809.80;105490;1269;59963;-51
2024/04/25 05:20:14;;;;;;;2.10;0.80;;;;;;;14.42;100.00;99811.88;105158;1269;72700;-54
2024/04/25 05:22:42;;;;;;;14.10;1.30;;;;;;;14.48;100.00;99808.81;105263;1267;66805;-51
2024/04/25 05:25:09;;;;;;;1.50;0.70;;;;;;;14.54;100.00;99811.80;105256;1265;73003;-52
2024/04/25 05:27:36;;;;;;;2.20;0.60;;;;;;;14.62;100.00;99810.79;106115;1257;203298;-51
2024/04/25 05:30:04;;;;;;;1.80;0.60;;;;;;;14.69;100.00;99817.52;106863;1255;59672;-54
2024/04/25 05:32:32;;;;;;;3.70;1.00;;;;;;;14.76;100.00;99816.02;106612;1254;71994;-53
2024/04/25 05:35:00;;;;;;;2.60;1.00;;;;;;;14.79;100.00;99819.27;106527;1254;66145;-51
2024/04/25 05:37:31;;;;;;;0.80;0.60;;;;;;;14.82;100.00;99820.70;106378;1254;72349;-51
2024/04/25 05:39:58;;;;;;;3.40;0.70;;;;;;;14.84;100.00;99822.16;106504;1264;61119;-53
2024/04/25 05:42:24;;;;;;;3.20;0.50;;;;;;;14.87;100.00;99828.13;106216;1257;61297;-53
2024/04/25 05:44:52;;;;;;;2.90;0.50;;;;;;;14.88;100.00;99831.09;106159;1254;74763;-50
2024/04/25 05:47:19;;;;;;;1.20;0.50;;;;;;;14.91;100.00;99834.36;106175;1254;67896;-51
2024/04/25 05:49:46;;;;;;;2.40;0.50;;;;;;;14.92;100.00;99837.02;106211;1251;73500;-51
2024/04/25 05:52:13;;;;;;;1.50;0.60;;;;;;;14.92;100.00;99843.49;109251;1250;60194;-51
2024/04/25 05:54:39;;;;;;;3.20;0.60;;;;;;;14.93;100.00;99847.45;109431;1250;59684;-52
2024/04/25 05:57:06;;;;;;;2.50;0.60;;;;;;;14.93;100.00;99845.45;109266;1250;77601;-50
2024/04/25 05:59:33;;;;;;;0.90;0.50;;;;;;;14.93;100.00;99851.74;109412;1250;67925;-51
2024/04/25 06:02:02;;;;;;;1.80;0.40;;;;;;;14.93;100.00;99855.35;109279;1251;71427;-52
2024/04/25 06:04:32;;;;;;;1.40;0.50;;;;;;;14.94;100.00;99861.98;109354;1251;60713;-54
2024/04/25 06:06:59;;;;;;;2.40;0.60;;;;;;;14.97;100.00;99863.78;109327;1250;58763;-52
2024/04/25 06:09:25;;;;;;;2.90;0.40;;;;;;;15.00;100.00;99864.30;109217;1251;73991;-53
2024/04/25 06:11:52;;;;;;;1.40;0.50;;;;;;;15.03;100.00;99867.00;109188;1251;67014;-52
2024/04/25 06:14:22;;;;;;;2.90;0.60;;;;;;;15.06;100.00;99871.30;109226;1251;72989;-52
2024/04/25 06:16:49;;;;;;;3.20;0.80;;;;;;;15.09;100.00;99880.69;109374;1250;58331;-52
2024/04/25 06:19:16;;;;;;;2.00;0.50;;;;;;;15.12;100.00;99884.66;109276;1251;60366;-53
2024/04/25 06:21:42;;;;;;;1.20;0.50;;;;;;;15.17;100.00;99889.62;109239;1251;73713;-52
2024/04/25 06:24:09;;;;;;;1.90;0.50;;;;;;;15.21;100.00;99894.44;109309;1252;67182;-52
2024/04/25 06:26:36;;;;;;;4.60;0.40;;;;;;;15.26;100.00;99903.45;109228;1253;72440;-50
2024/04/25 06:29:03;;;;;;;2.40;0.40;;;;;;;15.33;100.00;99911.51;109362;1251;61603;-51
2024/04/25 06:31:30;;;;;;;0.70;0.40;;;;;;;15.41;100.00;99914.25;109261;1251;59694;-54
2024/04/25 06:34:02;;;;;;;0.60;0.40;;;;;;;15.49;100.00;99919.27;109187;1253;74482;-51
2024/04/25 06:36:32;;;;;;;1.30;0.30;;;;;;;15.57;100.00;99924.78;109256;1251;66756;-52
2024/04/25 06:38:59;;;;;;;1.90;0.30;;;;;;;15.62;100.00;99931.33;106705;1253;72446;-52
2024/04/25 06:41:26;;;;;;;0.50;0.30;;;;;;;15.67;100.00;99929.55;106124;1251;60386;-50
2024/04/25 06:43:53;;;;;;;2.90;0.40;;;;;;;15.71;100.00;99936.54;106762;1254;60368;-54
2024/04/25 06:46:25;;;;;;;0.80;0.30;;;;;;;15.74;100.00;99945.86;106206;1251;73532;-51
2024/04/25 06:48:52;;;;;;;1.00;0.40;;;;;;;15.76;100.00;99949.54;107385;1251;67900;-51
2024/04/25 06:51:21;;;;;;;3.80;0.30;;;;;;;15.78;100.00;99956.48;106511;1255;72584;-51
2024/04/25 06:53:48;;;;;;;1.20;0.30;;;;;;;15.80;100.00;99962.70;106507;1251;61735;-52
2024/04/25 06:56:15;;;;;;;5.60;0.50;;;;;;;15.83;100.00;99971.70;107086;1256;60539;-51
2024/04/25 06:58:42;;;;;;;0.80;0.30;;;;;;;15.87;100.00;99976.48;106192;1254;74121;-52
2024/04/25 07:01:08;;;;;;;1.10;0.20;;;;;;;15.92;100.00;99986.11;106211;1256;67986;-51
2024/04/25 07:03:35;;;;;;;7.00;0.40;;;;;;;15.97;100.00;99993.94;106343;1254;72405;-55
2024/04/25 07:06:03;;;;;;;1.70;0.30;;;;;;;16.02;100.00;100000.15;106402;1256;60367;-52
2024/04/25 07:08:30;;;;;;;1.20;0.30;;;;;;;16.07;100.00;100006.85;107580;1253;60560;-54
2024/04/25 07:10:59;;;;;;;0.60;0.30;;;;;;;16.13;100.00;100017.11;106209;1256;76445;-52
2024/04/25 07:13:26;;;;;;;0.40;0.30;;;;;;;16.20;100.00;100022.23;106201;1255;66346;-52
2024/04/25 07:15:53;;;;;;;1.00;0.40;;;;;;;16.28;100.00;100027.66;106337;1256;71953;-50
2024/04/25 07:18:20;;;;;;;0.70;0.30;;;;;;;16.36;100.00;100038.60;106129;1266;61524;-52
2024/04/25 07:20:47;;;;;;;0.50;0.20;;;;;;;16.43;100.00;100042.43;106121;1256;61280;-53
2024/04/25 07:23:15;;;;;;;1.80;0.30;;;;;;;16.51;100.00;100050.05;106151;1267;73780;-57
2024/04/25 07:25:42;;;;;;;0.40;0.20;;;;;;;16.58;100.00;100053.37;106150;1256;68783;-51
2024/04/25 07:28:09;;;;;;;3.20;0.30;;;;;;;16.66;100.00;100057.73;106326;1254;72538;-53
2024/04/25 07:30:36;;;;;;;0.70;0.30;;;;;;;16.74;100.00;100065.38;106098;1256;60481;-51
2024/04/25 07:33:04;;;;;;;0.50;0.30;;;;;;;16.80;100.00;100076.88;106157;1256;60574;-51
2024/04/25 07:35:31;;;;;;;0.40;0.20;;;;;;;16.87;100.00;100087.96;106146;1254;73829;-51
2024/04/25 07:37:58;;;;;;;1.70;0.30;;;;;;;16.95;100.00;100101.23;106172;1256;66006;-52
2024/04/25 07:40:25;;;;;;;0.30;0.30;;;;;;;17.03;100.00;100103.93;106169;1251;73403;-53
2024/04/25 07:42:52;;;;;;;0.60;0.30;;;;;;;17.09;100.00;100111.48;106087;1255;60438;-53
2024/04/25 07:45:19;;;;;;;0.70;0.30;;;;;;;17.14;100.00;100112.61;106137;1251;60793;-51
2024/04/25 07:47:46;;;;;;;0.80;0.30;;;;;;;17.16;100.00;100115.19;106140;1256;74362;-53
2024/04/25 07:50:13;;;;;;;0.20;0.20;;;;;;;17.17;100.00;100117.06;106135;1256;67552;-51
2024/04/25 07:52:40;;;;;;;0.90;0.40;;;;;;;17.19;100.00;100124.52;106594;1256;72360;-53
2024/04/25 07:55:07;;;;;;;0.40;0.30;;;;;;;17.20;100.00;100121.98;106038;1256;60542;-51
2024/04/25 07:57:34;;;;;;;0.40;0.30;;;;;;;17.20;100.00;100126.67;106158;1255;60434;-52
2024/04/25 08:00:00;;;;;;;0.40;0.20;;;;;;;17.21;100.00;100131.28;106143;1257;73554;-51
2024/04/25 08:02:37;;;;;;;0.50;0.20;;;;;;;17.21;100.00;100137.84;106184;1256;67325;-51
2024/04/25 08:05:05;;;;;;;2.10;0.30;;;;;;;17.20;100.00;100138.98;106205;1254;72771;-52
2024/04/25 08:07:35;;;;;;;0.60;0.20;;;;;;;17.19;100.00;100142.11;106323;1252;60505;-52
2024/04/25 08:10:02;;;;;;;2.50;0.30;;;;;;;17.18;100.00;100147.49;106971;1254;61235;-53
2024/04/25 08:12:30;;;;;;;0.60;0.30;;;;;;;17.18;100.00;100155.99;106488;1251;74811;-50
2024/04/25 08:14:57;;;;;;;1.00;0.30;;;;;;;17.17;100.00;100158.42;106537;1257;68265;-54
2024/04/25 08:17:25;;;;;;;0.40;0.20;;;;;;;17.17;100.00;100163.17;106109;1256;70754;-55
2024/04/25 08:19:52;;;;;;;2.20;0.20;;;;;;;17.17;100.00;100162.45;106102;1253;60838;-52
2024/04/25 08:22:22;;;;;;;0.90;0.20;;;;;;;17.17;100.00;100164.92;106203;1256;60422;-51
2024/04/25 08:24:49;;;;;;;1.90;0.20;;;;;;;17.20;100.00;100171.06;106235;1255;73831;-54
2024/04/25 08:27:16;;;;;;;0.50;0.30;;;;;;;17.24;100.00;100173.88;106151;1256;67486;-51
2024/04/25 08:29:43;;;;;;;3.10;0.50;;;;;;;17.28;100.00;100177.93;106125;1251;73258;-53
2024/04/25 08:32:10;;;;;;;1.80;0.20;;;;;;;17.32;100.00;100178.96;106499;1257;60415;-50
2024/04/25 08:34:37;;;;;;;0.60;0.30;;;;;;;17.37;100.00;100182.23;106259;1253;61195;-52
2024/04/25 08:37:04;;;;;;;1.00;0.20;;;;;;;17.43;100.00;100182.22;106183;1252;73810;-52
2024/04/25 08:39:31;;;;;;;0.50;0.30;;;;;;;17.48;100.00;100187.83;106242;1254;67016;-53
2024/04/25 08:41:58;;;;;;;0.30;0.30;;;;;;;17.54;100.00;100191.04;106255;1266;73478;-51
2024/04/25 08:44:25;;;;;;;0.70;0.30;;;;;;;17.58;100.00;100198.37;106168;1252;60581;-56
2024/04/25 08:46:52;;;;;;;1.20;0.20;;;;;;;17.61;100.00;100200.83;106527;1256;60431;-51
2024/04/25 08:49:19;;;;;;;1.00;0.20;;;;;;;17.65;100.00;100198.62;106134;1254;75184;-54
2024/04/25 08:51:46;;;;;;;1.70;0.30;;;;;;;17.68;100.00;100203.11;107122;1254;65654;-53
2024/04/25 08:54:14;;;;;;;0.50;0.20;;;;;;;17.70;100.00;100207.17;109247;1251;73940;-52
2024/04/25 08:56:40;;;;;;;0.30;0.30;;;;;;;17.71;100.00;100212.15;109241;1252;60310;-50
2024/04/25 08:59:08;;;;;;;1.20;0.30;;;;;;;17.72;100.00;100215.34;109173;1251;58966;-54
2024/04/25 09:01:35;;;;;;;0.80;0.50;;;;;;;17.75;100.00;100219.50;106298;1257;73689;-52
2024/04/25 09:04:02;;;;;;;0.50;0.30;;;;;;;17.79;100.00;100222.81;106160;1257;66746;-55
2024/04/25 09:06:30;;;;;;;1.90;0.20;;;;;;;17.83;100.00;100227.84;109309;1251;71459;-54
2024/04/25 09:08:57;;;;;;;0.40;0.20;;;;;;;17.86;100.00;100230.23;109067;1251;58237;-53
2024/04/25 09:11:24;;;;;;;1.80;0.20;;;;;;;17.91;100.00;100239.11;109352;1251;59874;-51
2024/04/25 09:13:54;;;;;;;0.50;0.30;;;;;;;17.95;100.00;100245.89;109311;1251;72874;-52
2024/04/25 09:16:22;;;;;;;1.40;0.30;;;;;;;17.95;100.00;100255.84;109231;1252;66241;-52
2024/04/25 09:18:49;;;;;;;0.40;0.20;;;;;;;17.92;100.00;100260.07;109212;1252;72614;-52
2024/04/25 09:21:16;;;;;;;0.80;0.30;;;;;;;17.89;100.00;100256.27;109287;1251;59263;-54
2024/04/25 09:23:43;;;;;;;0.40;0.20;;;;;;;17.87;100.00;100260.56;109236;1251;59645;-54
2024/04/25 09:26:12;;;;;;;0.40;0.10;;;;;;;17.85;100.00;100258.41;108044;1256;74574;-53
2024/04/25 09:28:39;;;;;;;0.40;0.20;;;;;;;17.84;100.00;100260.30;106126;1266;66284;-52
2024/04/25 09:31:09;;;;;;;0.50;0.20;;;;;;;17.84;100.00;100270.79;106143;1257;73634;-52
2024/04/25 09:33:36;;;;;;;1.00;0.30;;;;;;;17.86;100.00;100273.92;106018;1251;61341;-53
2024/04/25 09:36:03;;;;;;;0.30;0.30;;;;;;;17.89;100.00;100278.80;106131;1254;61355;-52
2024/04/25 09:38:31;;;;;;;0.60;0.30;;;;;;;17.92;100.00;100288.01;107716;1256;74558;-57
2024/04/25 09:40:58;;;;;;;2.50;0.50;;;;;;;17.97;100.00;100295.99;106075;1256;68091;-53
2024/04/25 09:43:25;;;;;;;0.40;0.30;;;;;;;18.03;100.00;100297.45;106406;1258;72859;-53
2024/04/25 09:45:52;;;;;;;3.60;0.30;;;;;;;18.08;100.00;100299.21;106010;1255;61247;-56
2024/04/25 09:48:23;;;;;;;1.00;0.20;;;;;;;18.17;100.00;100302.63;109058;1251;59217;-53
2024/04/25 09:50:53;;;;;;;0.40;0.20;;;;;;;18.24;100.00;100303.74;106290;1257;73696;-51
2024/04/25 09:53:39;;;;;;;0.70;0.40;;;;;;;18.34;100.00;100306.84;106281;1256;67081;-53
2024/04/25 09:56:06;;;;;;;1.50;0.30;;;;;;;18.42;100.00;100306.80;106154;1251;71822;-52
2024/04/25 09:58:38;;;;;;;0.90;0.30;;;;;;;18.45;100.00;100310.40;106280;1256;61336;-52
2024/04/25 10:01:05;;;;;;;0.40;0.30;;;;;;;18.45;100.00;100311.14;106135;1262;62192;-53
2024/04/25 10:03:33;;;;;;;0.80;0.20;;;;;;;18.48;100.00;100310.52;106303;1256;72502;-52
2024/04/25 10:06:00;;;;;;;1.60;0.20;;;;;;;18.56;100.00;100305.39;106530;1256;67008;-52
2024/04/25 10:08:27;;;;;;;0.90;0.20;;;;;;;18.66;100.00;100309.09;106323;1256;72380;-55
2024/04/25 10:10:53;;;;;;;0.60;0.40;;;;;;;18.74;100.00;100313.79;106226;1255;61241;-54
2024/04/25 10:13:24;;;;;;;1.00;0.30;;;;;;;18.80;100.00;100320.03;106051;1256;62015;-53
2024/04/25 10:15:52;;;;;;;0.70;0.40;;;;;;;18.82;100.00;100330.39;106076;1269;74954;-56
2024/04/25 10:18:19;;;;;;;3.40;0.50;;;;;;;18.79;100.00;100333.58;106375;1251;67952;-55
2024/04/25 10:20:47;;;;;;;1.40;0.40;;;;;;;18.73;100.00;100337.45;106265;1256;72610;-52
2024/04/25 10:23:14;;;;;;;2.30;0.40;;;;;;;18.70;100.00;100342.42;106805;1256;61211;-53
2024/04/25 10:25:50;;;;;;;2.70;0.40;;;;;;;18.66;100.00;100346.70;106223;1252;61898;-53
2024/04/25 10:28:18;;;;;;;0.90;0.30;;;;;;;18.62;100.00;100357.15;106191;1263;74634;-51
2024/04/25 10:30:53;;;;;;;1.80;0.30;;;;;;;18.55;100.00;100352.42;106718;1254;65519;-52
2024/04/25 10:33:23;;;;;;;0.90;0.40;;;;;;;18.47;100.00;100350.23;106238;1257;70164;-51
2024/04/25 10:35:53;;;;;;;0.50;0.30;;;;;;;18.38;100.00;100343.77;106159;1267;61294;-53
2024/04/25 10:38:23;;;;;;;0.90;0.30;;;;;;;18.27;100.00;100338.37;106325;1256;61333;-53
2024/04/25 10:40:50;;;;;;;2.30;0.50;;;;;;;18.19;100.00;100333.90;106338;1255;75114;-54
2024/04/25 10:43:17;;;;;;;3.00;0.40;;;;;;;18.13;100.00;100333.00;106067;1256;65101;-54
2024/04/25 10:45:44;;;;;;;1.10;0.30;;;;;;;18.06;100.00;100326.41;106217;1253;72555;-55
2024/04/25 10:48:11;;;;;;;0.90;0.30;;;;;;;18.04;100.00;100321.15;106231;1257;61227;-52
2024/04/25 10:50:38;;;;;;;2.40;0.40;;;;;;;18.00;100.00;100315.59;106081;1254;59969;-52
2024/04/25 10:53:04;;;;;;;2.10;0.40;;;;;;;17.97;100.00;100312.52;106000;1256;74854;-53
2024/04/25 10:55:31;;;;;;;1.90;0.40;;;;;;;17.95;100.00;100307.06;106144;1251;65139;-52
2024/04/25 10:58:12;;;;;;;0.90;0.40;;;;;;;17.93;100.00;100302.32;106080;1252;72577;-55
2024/04/25 11:00:42;;;;;;;1.90;0.40;;;;;;;17.88;100.00;100292.44;106235;1254;61193;-55
2024/04/25 11:03:12;;;;;;;1.80;0.40;;;;;;;17.85;100.00;100288.35;106309;1254;61255;-54
2024/04/25 11:05:42;;;;;;;1.80;0.80;;;;;;;17.82;100.00;100290.15;106231;1251;75421;-53
2024/04/25 11:08:09;;;;;;;2.00;0.30;;;;;;;17.77;100.00;100283.62;106149;1257;66380;-53
2024/04/25 11:10:36;;;;;;;2.20;0.30;;;;;;;17.71;100.00;100277.48;106700;1256;71761;-53
2024/04/25 11:13:04;;;;;;;0.70;0.40;;;;;;;17.67;100.00;100271.80;106250;1254;61435;-55
2024/04/25 11:15:31;;;;;;;1.60;0.40;;;;;;;17.63;100.00;100258.84;106143;1251;61283;-52
2024/04/25 11:18:04;;;;;;;1.20;0.40;;;;;;;17.61;100.00;100253.87;106431;1255;74261;-55
2024/04/25 11:20:39;;;;;;;1.10;0.30;;;;;;;17.59;100.00;100251.27;106228;1257;67131;-53
2024/04/25 11:23:14;;;;;;;1.30;0.40;;;;;;;17.58;100.00;100248.47;107621;1255;72639;-52
2024/04/25 11:25:43;;;;;;;2.60;0.40;;;;;;;17.59;100.00;100252.55;106379;1261;61541;-53